sensor_id;sensor_type;location;lat;lon;timestamp;P1;durP1;ratioP1;P2;durP2;ratioP2
62475;SDS011;50739;45.670;11.936;2023-03-23T00:03:17;42.60;;;28.83;;
62475;SDS011;50739;45.670;11.936;2023-03-23T00:08:21;42.63;;;29.58;;
62475;SDS011;50739;45.670;11.936;2023-03-23T00:13:23;45.42;;;30.35;;
62475;SDS011;50739;45.670;11.936;2023-03-23T00:18:27;42.55;;;29.88;;
62475;SDS011;50739;45.670;11.936;2023-03-23T00:23:29;40.63;;;29.35;;
62475;SDS011;50739;45.670;11.936;2023-03-23T00:28:31;42.20;;;29.45;;
62475;SDS011;50739;45.670;11.936;2023-03-23T00:33:35;41.60;;;29.30;;
62475;SDS011;50739;45.670;11.936;2023-03-23T00:38:40;41.08;;;29.35;;
62475;SDS011;50739;45.670;11.936;2023-03-23T00:43:44;42.97;;;28.77;;
62475;SDS011;50739;45.670;11.936;2023-03-23T00:48:47;39.07;;;28.27;;
62475;SDS011;50739;45.670;11.936;2023-03-23T00:53:50;43.47;;;28.90;;
62475;SDS011;50739;45.670;11.936;2023-03-23T00:58:52;41.67;;;28.77;;
62475;SDS011;50739;45.670;11.936;2023-03-23T01:03:56;42.53;;;28.00;;
62475;SDS011;50739;45.670;11.936;2023-03-23T01:09:00;37.50;;;26.87;;
62475;SDS011;50739;45.670;11.936;2023-03-23T01:14:04;40.60;;;28.27;;
62475;SDS011;50739;45.670;11.936;2023-03-23T01:19:07;39.60;;;26.43;;
62475;SDS011;50739;45.670;11.936;2023-03-23T01:24:09;38.17;;;26.13;;
62475;SDS011;50739;45.670;11.936;2023-03-23T01:29:11;38.05;;;25.77;;
62475;SDS011;50739;45.670;11.936;2023-03-23T01:34:15;36.30;;;24.95;;
62475;SDS011;50739;45.670;11.936;2023-03-23T01:39:17;34.80;;;24.83;;
62475;SDS011;50739;45.670;11.936;2023-03-23T01:49:59;35.10;;;24.02;;
62475;SDS011;50739;45.670;11.936;2023-03-23T01:55:01;31.67;;;23.07;;
62475;SDS011;50739;45.670;11.936;2023-03-23T02:00:05;33.40;;;22.52;;
62475;SDS011;50739;45.670;11.936;2023-03-23T02:05:19;32.47;;;22.47;;
62475;SDS011;50739;45.670;11.936;2023-03-23T02:10:24;30.85;;;22.30;;
62475;SDS011;50739;45.670;11.936;2023-03-23T02:15:28;31.67;;;22.95;;
62475;SDS011;50739;45.670;11.936;2023-03-23T02:20:45;32.88;;;23.30;;
62475;SDS011;50739;45.670;11.936;2023-03-23T02:26:03;32.77;;;22.90;;
62475;SDS011;50739;45.670;11.936;2023-03-23T02:31:33;29.90;;;21.92;;
62475;SDS011;50739;45.670;11.936;2023-03-23T02:36:46;33.92;;;22.48;;
62475;SDS011;50739;45.670;11.936;2023-03-23T02:41:53;31.20;;;21.83;;
62475;SDS011;50739;45.670;11.936;2023-03-23T02:46:57;28.60;;;20.47;;
62475;SDS011;50739;45.670;11.936;2023-03-23T02:52:04;30.00;;;22.03;;
62475;SDS011;50739;45.670;11.936;2023-03-23T02:57:12;32.53;;;23.13;;
62475;SDS011;50739;45.670;11.936;2023-03-23T03:02:14;32.38;;;23.42;;
62475;SDS011;50739;45.670;11.936;2023-03-23T03:13:03;35.47;;;23.95;;
62475;SDS011;50739;45.670;11.936;2023-03-23T03:18:13;34.45;;;25.05;;
62475;SDS011;50739;45.670;11.936;2023-03-23T03:23:21;33.65;;;24.60;;
62475;SDS011;50739;45.670;11.936;2023-03-23T03:28:24;34.63;;;25.35;;
62475;SDS011;50739;45.670;11.936;2023-03-23T03:33:27;34.03;;;24.35;;
62475;SDS011;50739;45.670;11.936;2023-03-23T03:38:40;34.35;;;24.80;;
62475;SDS011;50739;45.670;11.936;2023-03-23T03:43:43;36.00;;;24.42;;
62475;SDS011;50739;45.670;11.936;2023-03-23T03:48:45;38.03;;;26.45;;
62475;SDS011;50739;45.670;11.936;2023-03-23T03:53:48;34.87;;;24.93;;
62475;SDS011;50739;45.670;11.936;2023-03-23T03:58:50;37.50;;;26.17;;
62475;SDS011;50739;45.670;11.936;2023-03-23T04:03:52;33.70;;;25.57;;
62475;SDS011;50739;45.670;11.936;2023-03-23T04:08:55;38.35;;;25.65;;
62475;SDS011;50739;45.670;11.936;2023-03-23T04:13:59;38.07;;;25.03;;
62475;SDS011;50739;45.670;11.936;2023-03-23T04:19:01;36.35;;;26.15;;
62475;SDS011;50739;45.670;11.936;2023-03-23T04:24:05;36.90;;;26.03;;
62475;SDS011;50739;45.670;11.936;2023-03-23T04:29:08;39.13;;;25.92;;
62475;SDS011;50739;45.670;11.936;2023-03-23T04:34:10;43.17;;;25.92;;
62475;SDS011;50739;45.670;11.936;2023-03-23T04:39:14;39.87;;;26.57;;
62475;SDS011;50739;45.670;11.936;2023-03-23T04:44:16;39.13;;;25.83;;
62475;SDS011;50739;45.670;11.936;2023-03-23T04:49:21;40.50;;;27.38;;
62475;SDS011;50739;45.670;11.936;2023-03-23T04:54:24;40.57;;;27.07;;
62475;SDS011;50739;45.670;11.936;2023-03-23T04:59:29;37.08;;;25.80;;
62475;SDS011;50739;45.670;11.936;2023-03-23T05:04:31;37.78;;;23.98;;
62475;SDS011;50739;45.670;11.936;2023-03-23T05:09:34;38.30;;;25.00;;
62475;SDS011;50739;45.670;11.936;2023-03-23T05:14:40;38.17;;;24.30;;
62475;SDS011;50739;45.670;11.936;2023-03-23T05:19:42;35.40;;;24.45;;
62475;SDS011;50739;45.670;11.936;2023-03-23T05:24:48;39.40;;;26.13;;
62475;SDS011;50739;45.670;11.936;2023-03-23T05:29:52;39.80;;;25.80;;
62475;SDS011;50739;45.670;11.936;2023-03-23T05:34:54;39.20;;;25.75;;
62475;SDS011;50739;45.670;11.936;2023-03-23T05:39:58;38.53;;;25.90;;
62475;SDS011;50739;45.670;11.936;2023-03-23T05:45:05;40.28;;;26.38;;
62475;SDS011;50739;45.670;11.936;2023-03-23T05:50:09;42.85;;;27.25;;
62475;SDS011;50739;45.670;11.936;2023-03-23T05:55:13;41.20;;;26.37;;
62475;SDS011;50739;45.670;11.936;2023-03-23T06:00:16;42.10;;;28.38;;
62475;SDS011;50739;45.670;11.936;2023-03-23T06:05:23;43.92;;;28.08;;
62475;SDS011;50739;45.670;11.936;2023-03-23T06:10:27;44.58;;;28.90;;
62475;SDS011;50739;45.670;11.936;2023-03-23T06:15:31;45.35;;;29.00;;
62475;SDS011;50739;45.670;11.936;2023-03-23T06:20:33;45.17;;;29.75;;
62475;SDS011;50739;45.670;11.936;2023-03-23T06:25:37;48.20;;;30.85;;
62475;SDS011;50739;45.670;11.936;2023-03-23T06:30:40;49.28;;;30.25;;
62475;SDS011;50739;45.670;11.936;2023-03-23T06:35:42;50.15;;;29.98;;
62475;SDS011;50739;45.670;11.936;2023-03-23T06:40:46;50.08;;;31.20;;
62475;SDS011;50739;45.670;11.936;2023-03-23T06:45:48;50.60;;;31.38;;
62475;SDS011;50739;45.670;11.936;2023-03-23T06:50:50;55.03;;;32.10;;
62475;SDS011;50739;45.670;11.936;2023-03-23T06:55:53;54.28;;;32.38;;
62475;SDS011;50739;45.670;11.936;2023-03-23T07:00:55;54.72;;;32.47;;
62475;SDS011;50739;45.670;11.936;2023-03-23T07:05:58;50.43;;;33.17;;
62475;SDS011;50739;45.670;11.936;2023-03-23T07:11:01;48.20;;;31.80;;
62475;SDS011;50739;45.670;11.936;2023-03-23T07:16:04;53.78;;;32.72;;
62475;SDS011;50739;45.670;11.936;2023-03-23T07:21:07;54.30;;;33.45;;
62475;SDS011;50739;45.670;11.936;2023-03-23T07:26:11;49.93;;;32.93;;
62475;SDS011;50739;45.670;11.936;2023-03-23T07:31:13;51.45;;;32.55;;
62475;SDS011;50739;45.670;11.936;2023-03-23T07:36:16;51.30;;;32.53;;
62475;SDS011;50739;45.670;11.936;2023-03-23T07:41:19;50.00;;;32.80;;
62475;SDS011;50739;45.670;11.936;2023-03-23T07:46:21;50.17;;;31.58;;
62475;SDS011;50739;45.670;11.936;2023-03-23T07:51:22;48.83;;;31.27;;
62475;SDS011;50739;45.670;11.936;2023-03-23T07:56:26;49.35;;;30.63;;
62475;SDS011;50739;45.670;11.936;2023-03-23T08:01:29;48.58;;;30.98;;
62475;SDS011;50739;45.670;11.936;2023-03-23T08:06:31;47.53;;;30.77;;
62475;SDS011;50739;45.670;11.936;2023-03-23T08:11:37;47.95;;;29.80;;
62475;SDS011;50739;45.670;11.936;2023-03-23T08:16:39;44.73;;;29.80;;
62475;SDS011;50739;45.670;11.936;2023-03-23T08:21:42;45.37;;;27.07;;
62475;SDS011;50739;45.670;11.936;2023-03-23T08:26:46;44.25;;;29.10;;
62475;SDS011;50739;45.670;11.936;2023-03-23T08:31:48;47.33;;;30.27;;
62475;SDS011;50739;45.670;11.936;2023-03-23T08:36:51;45.33;;;28.10;;
62475;SDS011;50739;45.670;11.936;2023-03-23T08:41:56;43.40;;;28.27;;
62475;SDS011;50739;45.670;11.936;2023-03-23T08:46:59;41.03;;;26.98;;
62475;SDS011;50739;45.670;11.936;2023-03-23T08:52:03;48.13;;;29.27;;
62475;SDS011;50739;45.670;11.936;2023-03-23T08:57:07;46.30;;;29.13;;
62475;SDS011;50739;45.670;11.936;2023-03-23T09:02:10;42.33;;;25.83;;
62475;SDS011;50739;45.670;11.936;2023-03-23T09:07:13;44.80;;;26.65;;
62475;SDS011;50739;45.670;11.936;2023-03-23T09:12:16;42.75;;;27.80;;
62475;SDS011;50739;45.670;11.936;2023-03-23T09:17:18;41.78;;;28.10;;
62475;SDS011;50739;45.670;11.936;2023-03-23T09:22:20;44.42;;;28.25;;
62475;SDS011;50739;45.670;11.936;2023-03-23T09:27:24;42.93;;;26.70;;
62475;SDS011;50739;45.670;11.936;2023-03-23T09:32:27;39.95;;;26.73;;
62475;SDS011;50739;45.670;11.936;2023-03-23T09:37:29;44.03;;;26.50;;
62475;SDS011;50739;45.670;11.936;2023-03-23T09:42:36;37.90;;;24.88;;
62475;SDS011;50739;45.670;11.936;2023-03-23T09:47:48;37.60;;;24.70;;
62475;SDS011;50739;45.670;11.936;2023-03-23T09:52:59;36.72;;;23.50;;
62475;SDS011;50739;45.670;11.936;2023-03-23T09:58:08;33.23;;;22.60;;
62475;SDS011;50739;45.670;11.936;2023-03-23T10:03:13;29.88;;;20.35;;
62475;SDS011;50739;45.670;11.936;2023-03-23T10:08:18;27.80;;;17.83;;
62475;SDS011;50739;45.670;11.936;2023-03-23T10:13:25;25.43;;;14.50;;
62475;SDS011;50739;45.670;11.936;2023-03-23T10:18:37;13.90;;;9.15;;
62475;SDS011;50739;45.670;11.936;2023-03-23T10:23:49;20.67;;;15.45;;
62475;SDS011;50739;45.670;11.936;2023-03-23T10:28:58;19.88;;;14.23;;
62475;SDS011;50739;45.670;11.936;2023-03-23T10:34:04;37.67;;;14.80;;
62475;SDS011;50739;45.670;11.936;2023-03-23T10:39:12;25.40;;;13.82;;
62475;SDS011;50739;45.670;11.936;2023-03-23T10:44:20;32.40;;;12.50;;
62475;SDS011;50739;45.670;11.936;2023-03-23T10:49:26;20.67;;;13.20;;
62475;SDS011;50739;45.670;11.936;2023-03-23T10:54:35;17.17;;;13.37;;
62475;SDS011;50739;45.670;11.936;2023-03-23T10:59:40;17.23;;;12.73;;
62475;SDS011;50739;45.670;11.936;2023-03-23T11:04:45;16.98;;;12.13;;
62475;SDS011;50739;45.670;11.936;2023-03-23T11:09:51;20.50;;;13.48;;
62475;SDS011;50739;45.670;11.936;2023-03-23T11:15:09;17.70;;;13.20;;
62475;SDS011;50739;45.670;11.936;2023-03-23T11:20:24;16.93;;;12.80;;
62475;SDS011;50739;45.670;11.936;2023-03-23T11:25:28;14.25;;;11.20;;
62475;SDS011;50739;45.670;11.936;2023-03-23T11:30:31;18.87;;;13.03;;
62475;SDS011;50739;45.670;11.936;2023-03-23T11:35:34;18.00;;;13.27;;
62475;SDS011;50739;45.670;11.936;2023-03-23T11:40:42;15.73;;;12.82;;
62475;SDS011;50739;45.670;11.936;2023-03-23T11:45:50;18.25;;;13.70;;
62475;SDS011;50739;45.670;11.936;2023-03-23T11:51:00;17.05;;;14.25;;
62475;SDS011;50739;45.670;11.936;2023-03-23T11:56:06;18.73;;;13.50;;
62475;SDS011;50739;45.670;11.936;2023-03-23T12:01:19;17.23;;;12.73;;
62475;SDS011;50739;45.670;11.936;2023-03-23T12:06:32;17.08;;;13.30;;
62475;SDS011;50739;45.670;11.936;2023-03-23T12:11:42;21.75;;;12.45;;
62475;SDS011;50739;45.670;11.936;2023-03-23T12:16:59;19.20;;;13.67;;
62475;SDS011;50739;45.670;11.936;2023-03-23T12:22:12;20.33;;;14.98;;
62475;SDS011;50739;45.670;11.936;2023-03-23T12:27:28;21.17;;;15.20;;
62475;SDS011;50739;45.670;11.936;2023-03-23T12:32:42;21.30;;;14.90;;
62475;SDS011;50739;45.670;11.936;2023-03-23T12:37:55;20.08;;;14.93;;
62475;SDS011;50739;45.670;11.936;2023-03-23T12:43:08;18.43;;;12.97;;
62475;SDS011;50739;45.670;11.936;2023-03-23T12:48:17;20.10;;;14.07;;
62475;SDS011;50739;45.670;11.936;2023-03-23T12:53:25;19.35;;;13.13;;
62475;SDS011;50739;45.670;11.936;2023-03-23T12:58:33;18.13;;;12.98;;
62475;SDS011;50739;45.670;11.936;2023-03-23T13:03:42;26.88;;;16.63;;
62475;SDS011;50739;45.670;11.936;2023-03-23T13:08:49;25.23;;;17.67;;
62475;SDS011;50739;45.670;11.936;2023-03-23T13:13:56;23.92;;;17.02;;
62475;SDS011;50739;45.670;11.936;2023-03-23T13:19:08;25.08;;;17.30;;
62475;SDS011;50739;45.670;11.936;2023-03-23T13:24:17;27.45;;;19.80;;
62475;SDS011;50739;45.670;11.936;2023-03-23T13:29:22;28.98;;;20.80;;
62475;SDS011;50739;45.670;11.936;2023-03-23T13:34:30;31.60;;;21.87;;
62475;SDS011;50739;45.670;11.936;2023-03-23T13:39:34;31.38;;;22.35;;
62475;SDS011;50739;45.670;11.936;2023-03-23T13:44:42;31.13;;;21.50;;
62475;SDS011;50739;45.670;11.936;2023-03-23T13:49:49;32.17;;;22.73;;
62475;SDS011;50739;45.670;11.936;2023-03-23T13:55:12;32.83;;;22.05;;
62475;SDS011;50739;45.670;11.936;2023-03-23T14:00:33;31.40;;;21.63;;
62475;SDS011;50739;45.670;11.936;2023-03-23T14:05:50;29.57;;;21.10;;
62475;SDS011;50739;45.670;11.936;2023-03-23T14:10:53;34.00;;;22.40;;
62475;SDS011;50739;45.670;11.936;2023-03-23T14:16:03;31.52;;;23.00;;
62475;SDS011;50739;45.670;11.936;2023-03-23T14:21:13;32.37;;;22.40;;
62475;SDS011;50739;45.670;11.936;2023-03-23T14:26:17;34.40;;;23.17;;
62475;SDS011;50739;45.670;11.936;2023-03-23T14:31:22;34.50;;;24.23;;
62475;SDS011;50739;45.670;11.936;2023-03-23T14:36:27;34.22;;;24.83;;
62475;SDS011;50739;45.670;11.936;2023-03-23T14:41:30;34.55;;;24.77;;
62475;SDS011;50739;45.670;11.936;2023-03-23T14:46:32;33.10;;;24.13;;
62475;SDS011;50739;45.670;11.936;2023-03-23T14:51:36;36.15;;;25.10;;
62475;SDS011;50739;45.670;11.936;2023-03-23T14:56:38;33.35;;;24.10;;
62475;SDS011;50739;45.670;11.936;2023-03-23T15:01:43;34.28;;;24.17;;
62475;SDS011;50739;45.670;11.936;2023-03-23T15:06:51;31.20;;;23.07;;
62475;SDS011;50739;45.670;11.936;2023-03-23T15:11:57;36.78;;;24.63;;
62475;SDS011;50739;45.670;11.936;2023-03-23T15:17:01;34.07;;;24.47;;
62475;SDS011;50739;45.670;11.936;2023-03-23T15:22:05;33.90;;;24.35;;
62475;SDS011;50739;45.670;11.936;2023-03-23T15:27:14;32.60;;;23.00;;
62475;SDS011;50739;45.670;11.936;2023-03-23T15:32:25;32.27;;;23.87;;
62475;SDS011;50739;45.670;11.936;2023-03-23T15:37:30;33.13;;;23.53;;
62475;SDS011;50739;45.670;11.936;2023-03-23T15:42:34;34.40;;;24.07;;
62475;SDS011;50739;45.670;11.936;2023-03-23T15:47:37;30.97;;;24.00;;
62475;SDS011;50739;45.670;11.936;2023-03-23T15:52:47;28.85;;;20.48;;
62475;SDS011;50739;45.670;11.936;2023-03-23T15:57:51;22.60;;;17.10;;
62475;SDS011;50739;45.670;11.936;2023-03-23T16:02:54;26.13;;;16.75;;
62475;SDS011;50739;45.670;11.936;2023-03-23T16:08:00;20.27;;;14.57;;
62475;SDS011;50739;45.670;11.936;2023-03-23T16:13:02;19.50;;;14.00;;
62475;SDS011;50739;45.670;11.936;2023-03-23T16:18:06;18.17;;;13.63;;
62475;SDS011;50739;45.670;11.936;2023-03-23T16:23:09;22.93;;;14.47;;
62475;SDS011;50739;45.670;11.936;2023-03-23T16:28:11;20.47;;;14.37;;
62475;SDS011;50739;45.670;11.936;2023-03-23T16:33:14;17.75;;;12.63;;
62475;SDS011;50739;45.670;11.936;2023-03-23T16:38:17;16.50;;;12.25;;
62475;SDS011;50739;45.670;11.936;2023-03-23T16:43:19;19.80;;;12.20;;
62475;SDS011;50739;45.670;11.936;2023-03-23T16:48:22;19.10;;;13.20;;
62475;SDS011;50739;45.670;11.936;2023-03-23T16:53:27;17.20;;;12.45;;
62475;SDS011;50739;45.670;11.936;2023-03-23T16:58:29;18.50;;;12.38;;
62475;SDS011;50739;45.670;11.936;2023-03-23T17:03:31;17.95;;;12.77;;
62475;SDS011;50739;45.670;11.936;2023-03-23T17:08:35;18.67;;;13.52;;
62475;SDS011;50739;45.670;11.936;2023-03-23T17:13:37;18.05;;;13.57;;
62475;SDS011;50739;45.670;11.936;2023-03-23T17:18:39;18.75;;;13.20;;
62475;SDS011;50739;45.670;11.936;2023-03-23T17:23:42;16.60;;;13.33;;
62475;SDS011;50739;45.670;11.936;2023-03-23T17:28:44;20.45;;;14.55;;
62475;SDS011;50739;45.670;11.936;2023-03-23T17:33:46;24.77;;;15.75;;
62475;SDS011;50739;45.670;11.936;2023-03-23T17:38:50;20.80;;;16.03;;
62475;SDS011;50739;45.670;11.936;2023-03-23T17:43:51;21.33;;;15.52;;
62475;SDS011;50739;45.670;11.936;2023-03-23T17:48:53;23.27;;;16.45;;
62475;SDS011;50739;45.670;11.936;2023-03-23T17:53:57;24.10;;;17.02;;
62475;SDS011;50739;45.670;11.936;2023-03-23T17:58:58;24.20;;;17.30;;
62475;SDS011;50739;45.670;11.936;2023-03-23T18:04:00;23.38;;;18.38;;
62475;SDS011;50739;45.670;11.936;2023-03-23T18:09:05;24.87;;;19.07;;
62475;SDS011;50739;45.670;11.936;2023-03-23T18:14:07;23.77;;;18.90;;
62475;SDS011;50739;45.670;11.936;2023-03-23T18:19:09;26.15;;;19.55;;
62475;SDS011;50739;45.670;11.936;2023-03-23T18:24:12;30.58;;;22.95;;
62475;SDS011;50739;45.670;11.936;2023-03-23T18:29:14;31.98;;;23.48;;
62475;SDS011;50739;45.670;11.936;2023-03-23T18:34:16;34.83;;;23.55;;
62475;SDS011;50739;45.670;11.936;2023-03-23T18:39:19;32.87;;;24.23;;
62475;SDS011;50739;45.670;11.936;2023-03-23T18:44:21;35.85;;;26.02;;
62475;SDS011;50739;45.670;11.936;2023-03-23T18:49:23;34.58;;;25.65;;
62475;SDS011;50739;45.670;11.936;2023-03-23T18:54:26;35.43;;;24.07;;
62475;SDS011;50739;45.670;11.936;2023-03-23T18:59:29;30.75;;;23.73;;
62475;SDS011;50739;45.670;11.936;2023-03-23T19:04:32;32.30;;;24.30;;
62475;SDS011;50739;45.670;11.936;2023-03-23T19:09:37;32.65;;;24.80;;
62475;SDS011;50739;45.670;11.936;2023-03-23T19:14:40;35.97;;;25.60;;
62475;SDS011;50739;45.670;11.936;2023-03-23T19:19:42;33.90;;;24.90;;
62475;SDS011;50739;45.670;11.936;2023-03-23T19:24:45;36.47;;;26.33;;
62475;SDS011;50739;45.670;11.936;2023-03-23T19:29:47;35.97;;;26.50;;
62475;SDS011;50739;45.670;11.936;2023-03-23T19:34:49;35.93;;;27.50;;
62475;SDS011;50739;45.670;11.936;2023-03-23T19:39:53;40.58;;;28.63;;
62475;SDS011;50739;45.670;11.936;2023-03-23T19:44:55;39.13;;;27.45;;
62475;SDS011;50739;45.670;11.936;2023-03-23T19:49:57;42.60;;;29.35;;
62475;SDS011;50739;45.670;11.936;2023-03-23T19:55:01;40.57;;;29.63;;
62475;SDS011;50739;45.670;11.936;2023-03-23T20:00:03;44.65;;;31.38;;
62475;SDS011;50739;45.670;11.936;2023-03-23T20:05:07;41.63;;;29.63;;
62475;SDS011;50739;45.670;11.936;2023-03-23T20:10:10;45.15;;;31.58;;
62475;SDS011;50739;45.670;11.936;2023-03-23T20:15:12;44.05;;;31.92;;
62475;SDS011;50739;45.670;11.936;2023-03-23T20:20:14;52.70;;;34.00;;
62475;SDS011;50739;45.670;11.936;2023-03-23T20:25:18;45.88;;;32.20;;
62475;SDS011;50739;45.670;11.936;2023-03-23T20:30:20;43.40;;;30.90;;
62475;SDS011;50739;45.670;11.936;2023-03-23T20:35:22;45.28;;;32.03;;
62475;SDS011;50739;45.670;11.936;2023-03-23T20:40:26;46.40;;;33.05;;
62475;SDS011;50739;45.670;11.936;2023-03-23T20:45:28;48.80;;;32.85;;
62475;SDS011;50739;45.670;11.936;2023-03-23T20:50:31;48.65;;;33.22;;
62475;SDS011;50739;45.670;11.936;2023-03-23T20:55:34;48.47;;;33.77;;
62475;SDS011;50739;45.670;11.936;2023-03-23T21:00:38;52.00;;;34.85;;
62475;SDS011;50739;45.670;11.936;2023-03-23T21:05:40;49.78;;;35.08;;
62475;SDS011;50739;45.670;11.936;2023-03-23T21:10:44;54.75;;;37.10;;
62475;SDS011;50739;45.670;11.936;2023-03-23T21:15:47;56.47;;;37.03;;
62475;SDS011;50739;45.670;11.936;2023-03-23T21:20:49;55.38;;;36.80;;
62475;SDS011;50739;45.670;11.936;2023-03-23T21:25:52;56.97;;;37.53;;
62475;SDS011;50739;45.670;11.936;2023-03-23T21:30:58;55.35;;;37.65;;
62475;SDS011;50739;45.670;11.936;2023-03-23T21:36:00;53.72;;;36.92;;
62475;SDS011;50739;45.670;11.936;2023-03-23T21:41:06;54.13;;;37.45;;
62475;SDS011;50739;45.670;11.936;2023-03-23T21:46:10;56.77;;;37.70;;
62475;SDS011;50739;45.670;11.936;2023-03-23T21:51:18;58.90;;;38.77;;
62475;SDS011;50739;45.670;11.936;2023-03-23T21:56:24;62.20;;;41.37;;
62475;SDS011;50739;45.670;11.936;2023-03-23T22:01:27;61.70;;;40.28;;
62475;SDS011;50739;45.670;11.936;2023-03-23T22:06:29;60.77;;;40.50;;
62475;SDS011;50739;45.670;11.936;2023-03-23T22:11:35;60.55;;;41.13;;
62475;SDS011;50739;45.670;11.936;2023-03-23T22:16:38;61.57;;;41.00;;
62475;SDS011;50739;45.670;11.936;2023-03-23T22:21:40;62.17;;;40.40;;
62475;SDS011;50739;45.670;11.936;2023-03-23T22:26:43;59.73;;;40.50;;
62475;SDS011;50739;45.670;11.936;2023-03-23T22:31:46;63.25;;;41.83;;
62475;SDS011;50739;45.670;11.936;2023-03-23T22:36:48;59.57;;;38.90;;
62475;SDS011;50739;45.670;11.936;2023-03-23T22:41:52;56.40;;;38.23;;
62475;SDS011;50739;45.670;11.936;2023-03-23T22:46:54;55.27;;;38.47;;
62475;SDS011;50739;45.670;11.936;2023-03-23T22:51:55;60.20;;;39.17;;
62475;SDS011;50739;45.670;11.936;2023-03-23T22:56:59;62.85;;;39.78;;
62475;SDS011;50739;45.670;11.936;2023-03-23T23:02:01;57.80;;;38.22;;
62475;SDS011;50739;45.670;11.936;2023-03-23T23:07:03;59.13;;;38.70;;
62475;SDS011;50739;45.670;11.936;2023-03-23T23:12:06;59.28;;;39.28;;
62475;SDS011;50739;45.670;11.936;2023-03-23T23:17:09;57.07;;;38.53;;
62475;SDS011;50739;45.670;11.936;2023-03-23T23:22:11;58.95;;;37.92;;
62475;SDS011;50739;45.670;11.936;2023-03-23T23:27:15;57.58;;;38.38;;
62475;SDS011;50739;45.670;11.936;2023-03-23T23:32:17;57.83;;;37.97;;
62475;SDS011;50739;45.670;11.936;2023-03-23T23:37:19;58.08;;;38.90;;
62475;SDS011;50739;45.670;11.936;2023-03-23T23:42:24;57.25;;;38.65;;
62475;SDS011;50739;45.670;11.936;2023-03-23T23:47:26;56.73;;;37.93;;
62475;SDS011;50739;45.670;11.936;2023-03-23T23:52:27;56.47;;;38.08;;
62475;SDS011;50739;45.670;11.936;2023-03-23T23:57:31;55.43;;;36.57;;
